Time;durP1;ratioP1;P1;durP2;ratioP2;P2;SDS_P1;SDS_P2;PMS_P1;PMS_P2;Temp;Humidity;BMP_temperature;BMP_pressure;BME280_temperature;BME280_humidity;BME280_pressure;Samples;Min_cycle;Max_cycle;Signal;HPM_P1;HPM_P2
2021/08/20 00:02:26;;;;;;;29.03;27.53;;;15.00;93.70;;;;;;6107561;23;20404;-81
2021/08/20 00:04:53;;;;;;;26.93;25.23;;;15.00;93.40;;;;;;6097541;23;20526;-81
2021/08/20 00:07:20;;;;;;;24.57;23.13;;;14.90;93.20;;;;;;6107413;23;20428;-82
2021/08/20 00:09:47;;;;;;;22.57;21.20;;;15.00;93.00;;;;;;6096559;23;20495;-82
2021/08/20 00:12:14;;;;;;;21.50;20.30;;;15.00;93.00;;;;;;6097980;23;20404;-82
2021/08/20 00:14:42;;;;;;;21.23;19.83;;;15.00;93.00;;;;;;6097915;23;20443;-82
2021/08/20 00:17:09;;;;;;;21.43;20.13;;;15.10;93.10;;;;;;6097944;23;20408;-82
2021/08/20 00:19:36;;;;;;;22.10;20.60;;;15.20;93.10;;;;;;6097883;23;20463;-82
2021/08/20 00:22:05;;;;;;;21.70;19.90;;;15.10;93.10;;;;;;6097846;23;20404;-82
2021/08/20 00:24:32;;;;;;;22.03;20.50;;;15.20;93.10;;;;;;6096391;23;20789;-81
2021/08/20 00:26:59;;;;;;;18.77;17.47;;;15.20;93.10;;;;;;6097572;23;20585;-82
2021/08/20 00:29:26;;;;;;;18.30;17.00;;;15.20;92.40;;;;;;6097546;23;20896;-82
2021/08/20 00:31:54;;;;;;;19.47;18.20;;;15.10;92.80;;;;;;6097818;23;20402;-82
2021/08/20 00:34:22;;;;;;;17.90;16.70;;;15.10;92.60;;;;;;6107602;23;20408;-82
2021/08/20 00:36:49;;;;;;;17.20;16.20;;;15.20;92.10;;;;;;6097655;23;20467;-82
2021/08/20 00:39:16;;;;;;;19.80;18.30;;;15.20;92.00;;;;;;6096240;23;20476;-82
2021/08/20 00:41:43;;;;;;;18.73;17.43;;;15.20;92.20;;;;;;6107373;23;20806;-82
2021/08/20 00:44:10;;;;;;;18.63;17.43;;;15.20;92.30;;;;;;6097647;23;20423;-82
2021/08/20 00:46:37;;;;;;;18.40;17.10;;;15.20;92.20;;;;;;6097599;23;20468;-82
2021/08/20 00:49:06;;;;;;;17.20;16.00;;;15.30;91.80;;;;;;6097086;23;20403;-81
2021/08/20 00:51:36;;;;;;;17.90;16.80;;;15.20;91.80;;;;;;6097488;23;20408;-82
2021/08/20 00:54:08;;;;;;;16.33;15.27;;;15.20;91.80;;;;;;6105979;23;20484;-82
2021/08/20 00:56:35;;;;;;;15.30;14.07;;;15.30;91.40;;;;;;6097668;23;20428;-82
2021/08/20 00:59:03;;;;;;;15.27;13.83;;;15.40;90.90;;;;;;6097594;23;20403;-82
2021/08/20 01:01:31;;;;;;;13.37;12.27;;;15.30;90.90;;;;;;6106899;23;20411;-82
2021/08/20 01:03:58;;;;;;;12.00;10.90;;;15.40;90.40;;;;;;6097203;23;20435;-82
2021/08/20 01:06:29;;;;;;;11.23;10.23;;;15.50;89.70;;;;;;6097098;23;21169;-82
2021/08/20 01:08:56;;;;;;;9.90;9.00;;;15.50;88.00;;;;;;6105399;23;20754;-82
2021/08/20 01:11:25;;;;;;;10.10;9.10;;;15.60;87.30;;;;;;6097389;23;20435;-82
2021/08/20 01:13:53;;;;;;;10.50;8.60;;;15.60;86.40;;;;;;6107090;23;20408;-82
2021/08/20 01:16:21;;;;;;;8.80;7.90;;;15.70;84.00;;;;;;6097337;23;20443;-82
2021/08/20 01:18:48;;;;;;;12.20;7.70;;;15.70;82.10;;;;;;6097416;23;20486;-82
2021/08/20 01:21:17;;;;;;;7.20;6.27;;;15.70;82.20;;;;;;6098428;23;20404;-82
2021/08/20 01:23:47;;;;;;;9.57;6.83;;;15.70;79.90;;;;;;6095935;23;20486;-82
2021/08/20 01:26:15;;;;;;;11.20;7.70;;;15.70;79.10;;;;;;6106548;23;20451;-82
2021/08/20 01:28:42;;;;;;;9.73;6.33;;;15.80;74.70;;;;;;6097350;23;20411;-82
2021/08/20 01:31:12;;;;;;;13.20;7.10;;;15.80;76.40;;;;;;6097169;23;20616;-82
2021/08/20 01:33:40;;;;;;;11.57;7.00;;;15.80;73.90;;;;;;6097298;23;20459;-82
2021/08/20 01:36:08;;;;;;;9.77;7.07;;;15.80;72.90;;;;;;6097214;23;20404;-82
2021/08/20 01:38:46;;;;;;;9.73;6.57;;;15.90;74.40;;;;;;6105670;23;20408;-82
2021/08/20 01:41:15;;;;;;;10.50;6.57;;;15.80;74.30;;;;;;6106857;23;20419;-81
2021/08/20 01:43:42;;;;;;;11.87;7.97;;;15.80;74.40;;;;;;6106605;23;20412;-82
2021/08/20 01:46:09;;;;;;;12.00;8.13;;;15.70;74.20;;;;;;6097112;23;20752;-82
2021/08/20 01:48:36;;;;;;;10.27;7.30;;;15.70;72.90;;;;;;6106671;23;20407;-82
2021/08/20 01:51:03;;;;;;;17.37;8.23;;;15.70;72.90;;;;;;6096733;23;20495;-82
2021/08/20 01:53:30;;;;;;;12.50;7.90;;;15.60;73.00;;;;;;6095611;23;20399;-82
2021/08/20 01:55:57;;;;;;;15.23;8.10;;;15.70;73.40;;;;;;6097207;23;20411;-82
2021/08/20 01:58:25;;;;;;;20.17;9.03;;;15.60;73.10;;;;;;6106724;23;20419;-82
2021/08/20 02:00:52;;;;;;;13.17;8.90;;;15.60;72.60;;;;;;6097194;23;20399;-81
2021/08/20 02:03:19;;;;;;;14.97;8.90;;;15.60;73.90;;;;;;6106544;23;20800;-82
2021/08/20 02:05:46;;;;;;;12.07;8.90;;;15.50;72.80;;;;;;6096504;23;20522;-82
2021/08/20 02:08:12;;;;;;;13.37;8.93;;;15.50;73.50;;;;;;6095725;23;20741;-82
2021/08/20 02:10:39;;;;;;;11.17;8.37;;;15.40;73.40;;;;;;6096941;23;20440;-82
2021/08/20 02:13:06;;;;;;;12.17;8.17;;;15.40;73.60;;;;;;6096880;23;20440;-82
2021/08/20 02:15:37;;;;;;;11.10;8.23;;;15.40;73.90;;;;;;6106921;23;20411;-82
2021/08/20 02:18:04;;;;;;;12.40;8.70;;;15.30;73.90;;;;;;6106797;23;20478;-82
2021/08/20 02:20:30;;;;;;;13.60;8.90;;;15.30;73.90;;;;;;6106593;23;20803;-82
2021/08/20 02:22:57;;;;;;;11.23;8.60;;;15.30;74.20;;;;;;6095706;23;20418;-82
2021/08/20 02:25:24;;;;;;;16.13;8.30;;;15.10;74.80;;;;;;6096907;23;20519;-82
2021/08/20 02:27:51;;;;;;;18.30;8.20;;;15.10;74.50;;;;;;6096946;23;20436;-81
2021/08/20 02:30:20;;;;;;;11.47;8.43;;;15.00;75.40;;;;;;6106478;23;20903;-82
2021/08/20 02:32:48;;;;;;;11.87;8.37;;;15.00;75.60;;;;;;6096707;23;20911;-82
2021/08/20 02:35:15;;;;;;;11.10;7.97;;;15.10;76.30;;;;;;6107606;23;20412;-82
2021/08/20 02:37:42;;;;;;;11.90;9.53;;;14.90;76.60;;;;;;6105942;23;20486;-81
2021/08/20 02:40:10;;;;;;;11.50;8.97;;;15.00;77.70;;;;;;6108257;23;20407;-82
2021/08/20 02:42:37;;;;;;;12.90;8.50;;;15.00;77.30;;;;;;6098811;23;20439;-82
2021/08/20 02:45:04;;;;;;;11.80;9.13;;;15.00;77.70;;;;;;6098851;23;20404;-82
2021/08/20 02:47:31;;;;;;;12.30;8.73;;;15.10;76.30;;;;;;6098739;23;20486;-81
2021/08/20 02:49:59;;;;;;;12.70;8.57;;;15.00;76.10;;;;;;6098953;23;20407;-82
2021/08/20 02:52:26;;;;;;;17.23;8.70;;;15.00;76.30;;;;;;6098761;23;20403;-82
2021/08/20 02:54:53;;;;;;;11.17;8.67;;;15.00;77.20;;;;;;6097303;23;20719;-82
2021/08/20 02:57:22;;;;;;;12.33;7.93;;;14.90;76.80;;;;;;6098917;23;20415;-82
2021/08/20 02:59:50;;;;;;;13.53;9.73;;;14.90;78.20;;;;;;6098440;23;20922;-82
2021/08/20 03:02:17;;;;;;;11.97;9.73;;;14.80;79.00;;;;;;6108493;23;20407;-82
2021/08/20 03:04:44;;;;;;;12.70;10.30;;;14.70;80.90;;;;;;6099301;23;20969;-82
2021/08/20 03:07:12;;;;;;;11.03;9.90;;;14.80;81.30;;;;;;6107905;23;20994;-82
2021/08/20 03:09:39;;;;;;;14.30;10.70;;;14.70;81.30;;;;;;6096726;23;20474;-81
2021/08/20 03:12:06;;;;;;;12.63;11.33;;;14.80;81.40;;;;;;6107876;23;20408;-81
2021/08/20 03:14:33;;;;;;;13.50;12.20;;;14.70;81.70;;;;;;6107922;23;20419;-82
2021/08/20 03:17:00;;;;;;;14.10;12.53;;;14.70;82.60;;;;;;6108247;23;20415;-82
2021/08/20 03:19:28;;;;;;;14.20;12.90;;;14.80;82.90;;;;;;6098082;23;20487;-81
2021/08/20 03:21:56;;;;;;;16.93;12.60;;;14.80;83.00;;;;;;6098412;23;20435;-82
2021/08/20 03:24:24;;;;;;;14.20;12.43;;;14.80;82.80;;;;;;6106341;23;20439;-82
2021/08/20 03:26:51;;;;;;;14.20;12.70;;;14.80;82.30;;;;;;6097933;23;20428;-82
2021/08/20 03:29:18;;;;;;;14.60;12.70;;;14.80;82.60;;;;;;6107849;23;20435;-82
2021/08/20 03:31:45;;;;;;;13.43;12.10;;;14.80;83.20;;;;;;6108178;23;20743;-82
2021/08/20 03:34:12;;;;;;;13.83;12.47;;;14.80;83.40;;;;;;6098177;23;20408;-82
2021/08/20 03:36:39;;;;;;;17.10;13.13;;;14.80;83.40;;;;;;6098006;23;20915;-82
2021/08/20 03:39:06;;;;;;;12.60;11.50;;;14.80;83.40;;;;;;6096418;23;20411;-82
2021/08/20 03:41:34;;;;;;;14.87;13.30;;;14.80;83.40;;;;;;6107626;23;20450;-82
2021/08/20 03:44:01;;;;;;;15.70;14.10;;;14.90;83.90;;;;;;6098244;23;20719;-82
2021/08/20 03:46:28;;;;;;;15.30;13.70;;;14.90;83.70;;;;;;6098147;23;20465;-82
2021/08/20 03:48:55;;;;;;;14.20;12.80;;;14.90;83.60;;;;;;6107459;23;20430;-82
2021/08/20 03:51:22;;;;;;;14.30;12.90;;;15.00;83.10;;;;;;6098253;23;20439;-82
2021/08/20 03:53:49;;;;;;;14.10;12.80;;;15.10;83.50;;;;;;6096523;23;20888;-82
2021/08/20 03:56:15;;;;;;;15.07;13.00;;;15.10;83.60;;;;;;6107650;23;20958;-82
2021/08/20 03:58:44;;;;;;;14.33;12.63;;;15.20;83.60;;;;;;6098110;23;20412;-82
2021/08/20 04:01:13;;;;;;;14.40;12.93;;;15.20;83.70;;;;;;6098113;23;20400;-82
2021/08/20 04:03:40;;;;;;;14.97;12.67;;;15.20;83.00;;;;;;6107375;23;20805;-82
2021/08/20 04:06:09;;;;;;;13.00;10.90;;;15.20;82.20;;;;;;6097692;23;20403;-82
2021/08/20 04:08:36;;;;;;;13.40;11.17;;;15.20;81.80;;;;;;6096561;23;20467;-82
2021/08/20 04:11:03;;;;;;;14.47;12.47;;;15.20;82.10;;;;;;6107868;23;20412;-82
2021/08/20 04:13:30;;;;;;;14.47;13.07;;;15.30;83.10;;;;;;6107808;23;20439;-82
2021/08/20 04:16:05;;;;;;;16.23;13.70;;;15.30;83.80;;;;;;6097414;23;20455;-82
2021/08/20 04:18:32;;;;;;;15.43;13.93;;;15.20;83.80;;;;;;6097987;23;20490;-82
2021/08/20 04:20:59;;;;;;;15.63;14.03;;;15.30;84.30;;;;;;6097929;23;20787;-82
2021/08/20 04:23:26;;;;;;;16.17;14.50;;;15.30;84.60;;;;;;6096394;23;20439;-82
2021/08/20 04:25:52;;;;;;;17.63;14.33;;;15.30;84.40;;;;;;6097521;23;20455;-82
2021/08/20 04:28:19;;;;;;;16.90;15.20;;;15.30;84.60;;;;;;6107010;23;20446;-82
2021/08/20 04:30:46;;;;;;;16.80;15.30;;;15.30;84.90;;;;;;6097735;23;20407;-82
2021/08/20 04:33:14;;;;;;;23.13;17.50;;;15.20;85.00;;;;;;6107535;23;20495;-82
2021/08/20 04:35:41;;;;;;;17.77;16.10;;;15.20;85.70;;;;;;6107523;23;20411;-82
2021/08/20 04:38:08;;;;;;;18.60;16.70;;;15.20;85.70;;;;;;6105783;23;20422;-82
2021/08/20 04:40:35;;;;;;;19.90;18.20;;;15.30;86.30;;;;;;6097629;23;20404;-82
2021/08/20 04:43:02;;;;;;;20.60;18.60;;;15.30;86.70;;;;;;6097589;23;20412;-82
2021/08/20 04:45:29;;;;;;;22.57;20.83;;;15.30;87.20;;;;;;6107351;23;20474;-82
2021/08/20 04:47:56;;;;;;;24.30;22.40;;;15.30;87.40;;;;;;6097171;23;21022;-82
2021/08/20 04:50:29;;;;;;;24.57;21.90;;;15.20;87.90;;;;;;6107302;23;20880;-82
2021/08/20 04:52:56;;;;;;;24.40;22.30;;;15.30;88.10;;;;;;6095749;23;20483;-82
2021/08/20 04:55:23;;;;;;;23.10;21.33;;;15.30;88.00;;;;;;6107230;23;20431;-82
2021/08/20 04:57:50;;;;;;;21.70;19.90;;;15.40;87.50;;;;;;6097486;23;20462;-82
2021/08/20 05:00:17;;;;;;;21.70;19.53;;;15.40;87.80;;;;;;6106839;23;20434;-82
2021/08/20 05:02:44;;;;;;;26.90;20.37;;;15.50;87.50;;;;;;6097439;23;20408;-82
2021/08/20 05:05:12;;;;;;;26.27;20.63;;;15.50;87.30;;;;;;6106649;23;20447;-82
2021/08/20 05:07:43;;;;;;;21.63;19.60;;;15.50;87.10;;;;;;6045494;23;20534;-81
2021/08/20 05:10:12;;;;;;;28.90;19.47;;;15.60;86.70;;;;;;6106881;23;20438;-82
2021/08/20 05:12:40;;;;;;;26.03;18.40;;;15.60;86.60;;;;;;6106734;23;20518;-82
2021/08/20 05:15:09;;;;;;;19.67;17.10;;;15.60;86.10;;;;;;6096988;23;20435;-82
2021/08/20 05:17:36;;;;;;;19.47;17.40;;;15.80;85.40;;;;;;6047067;23;20416;-81
2021/08/20 05:20:03;;;;;;;20.20;17.80;;;15.80;85.40;;;;;;6106815;23;20442;-82
2021/08/20 05:22:44;;;;;;;17.50;15.57;;;15.90;84.70;;;;;;6096360;23;20440;-81
2021/08/20 05:25:13;;;;;;;16.30;14.17;;;16.00;84.50;;;;;;6097263;23;20454;-82
2021/08/20 05:27:40;;;;;;;17.13;15.50;;;16.00;83.70;;;;;;6106657;23;21002;-82
2021/08/20 05:30:09;;;;;;;17.43;14.67;;;16.10;82.90;;;;;;6097261;23;20792;-82
2021/08/20 05:32:36;;;;;;;19.70;15.63;;;16.20;83.50;;;;;;6097352;23;20517;-81
2021/08/20 05:35:05;;;;;;;20.50;15.43;;;16.20;82.60;;;;;;6106670;23;20412;-82
2021/08/20 05:37:32;;;;;;;25.10;14.80;;;16.20;82.60;;;;;;6105375;23;20435;-82
2021/08/20 05:40:00;;;;;;;21.93;14.50;;;16.40;82.80;;;;;;6097241;23;20408;-82
2021/08/20 05:42:28;;;;;;;19.60;13.83;;;16.50;82.90;;;;;;6097382;23;20411;-82
2021/08/20 05:44:55;;;;;;;20.50;13.27;;;16.50;82.30;;;;;;6106694;23;20411;-82
2021/08/20 05:47:23;;;;;;;18.97;14.20;;;16.60;81.50;;;;;;6097225;23;20455;-82
2021/08/20 05:49:50;;;;;;;14.17;11.30;;;16.60;80.70;;;;;;6097150;23;20404;-81
2021/08/20 05:52:17;;;;;;;23.30;13.80;;;16.70;79.90;;;;;;6097298;23;20439;-81
2021/08/20 05:54:44;;;;;;;17.03;13.13;;;16.70;80.60;;;;;;6095707;23;20843;-81
2021/08/20 05:57:12;;;;;;;17.87;13.00;;;16.80;80.40;;;;;;6096880;23;20502;-81
2021/08/20 05:59:39;;;;;;;18.30;11.83;;;16.80;79.80;;;;;;6095728;23;20404;-79
2021/08/20 06:02:06;;;;;;;17.40;12.00;;;16.90;79.40;;;;;;6096232;23;20479;-81
2021/08/20 06:04:33;;;;;;;30.17;12.33;;;17.00;78.60;;;;;;6096389;23;20463;-81
2021/08/20 06:07:00;;;;;;;15.50;11.90;;;17.10;78.30;;;;;;6096840;23;20775;-82
2021/08/20 06:09:27;;;;;;;17.23;11.43;;;17.10;77.90;;;;;;6095562;23;20451;-82
2021/08/20 06:11:54;;;;;;;17.07;12.80;;;17.20;78.30;;;;;;6097060;23;20404;-82
2021/08/20 06:14:22;;;;;;;16.90;11.03;;;17.20;77.60;;;;;;6098589;23;20439;-81
2021/08/20 06:16:54;;;;;;;21.60;10.97;;;17.20;76.30;;;;;;6098631;23;20404;-82
2021/08/20 06:19:21;;;;;;;16.70;11.30;;;17.20;75.70;;;;;;6098476;23;20412;-82
2021/08/20 06:21:48;;;;;;;20.47;11.50;;;17.20;75.60;;;;;;6098619;23;20408;-82
2021/08/20 06:24:18;;;;;;;21.03;12.50;;;17.30;75.90;;;;;;6097247;23;20793;-82
2021/08/20 06:26:46;;;;;;;20.17;12.17;;;17.40;75.80;;;;;;6108287;23;20415;-82
2021/08/20 06:29:15;;;;;;;23.17;11.90;;;17.50;75.90;;;;;;6098915;23;20530;-82
2021/08/20 06:31:43;;;;;;;18.43;9.70;;;17.60;74.20;;;;;;6098307;23;20400;-82
2021/08/20 06:34:10;;;;;;;16.40;11.10;;;17.50;74.00;;;;;;6098948;23;20403;-82
2021/08/20 06:36:37;;;;;;;16.77;9.87;;;17.60;74.10;;;;;;6098953;23;20461;-82
2021/08/20 06:39:04;;;;;;;21.00;11.07;;;17.90;74.00;;;;;;6096994;23;20414;-82
2021/08/20 06:41:31;;;;;;;12.77;9.40;;;18.00;72.00;;;;;;6098383;23;20499;-78
2021/08/20 06:43:58;;;;;;;15.57;8.60;;;18.30;68.60;;;;;;6098112;23;20404;-82
2021/08/20 06:46:25;;;;;;;16.50;8.33;;;18.70;67.90;;;;;;6098730;23;20434;-84
2021/08/20 06:48:53;;;;;;;16.80;9.13;;;19.00;65.00;;;;;;6098786;23;20843;-83
2021/08/20 06:51:22;;;;;;;18.90;8.37;;;19.00;60.90;;;;;;6098899;23;20499;-84
2021/08/20 06:53:50;;;;;;;16.80;8.30;;;19.10;61.00;;;;;;6097573;23;20568;-84
2021/08/20 06:56:17;;;;;;;15.17;9.23;;;19.30;60.60;;;;;;6098687;23;20430;-84
2021/08/20 06:58:46;;;;;;;14.60;8.60;;;19.30;59.10;;;;;;6108016;23;20407;-84
2021/08/20 07:01:12;;;;;;;14.00;7.90;;;19.40;59.70;;;;;;6098576;23;20407;-84
2021/08/20 07:03:39;;;;;;;17.60;6.90;;;19.60;57.80;;;;;;6098362;23;20499;-83
2021/08/20 07:06:08;;;;;;;14.70;6.80;;;19.80;55.70;;;;;;6107945;23;20403;-84
2021/08/20 07:08:35;;;;;;;13.80;6.50;;;19.90;54.60;;;;;;6096732;23;20446;-85
2021/08/20 07:11:03;;;;;;;14.33;7.40;;;20.10;54.40;;;;;;6098454;23;20446;-83
2021/08/20 07:13:30;;;;;;;13.27;7.67;;;20.30;53.90;;;;;;6107650;23;20436;-84
2021/08/20 07:15:57;;;;;;;15.87;7.50;;;20.30;50.70;;;;;;6098152;23;20411;-84
2021/08/20 07:18:26;;;;;;;12.27;7.63;;;20.10;52.50;;;;;;6105503;23;20466;-83
2021/08/20 07:20:53;;;;;;;11.27;6.40;;;20.20;51.90;;;;;;6106788;23;20894;-84
2021/08/20 07:23:23;;;;;;;12.70;7.03;;;20.10;51.20;;;;;;6094967;23;20463;-84
2021/08/20 07:25:50;;;;;;;11.50;7.10;;;20.10;52.00;;;;;;6096541;23;20486;-83
2021/08/20 07:28:17;;;;;;;13.00;7.63;;;20.20;50.80;;;;;;6096594;23;20447;-84
2021/08/20 07:30:44;;;;;;;11.83;7.33;;;20.40;51.20;;;;;;6096869;23;20459;-83
2021/08/20 07:33:13;;;;;;;14.37;7.60;;;20.30;49.80;;;;;;6106075;23;20416;-84
2021/08/20 07:35:41;;;;;;;11.87;6.40;;;20.50;48.40;;;;;;6098203;23;20407;-84
2021/08/20 07:38:08;;;;;;;13.83;6.80;;;20.70;48.10;;;;;;6096181;23;20826;-84
2021/08/20 07:40:41;;;;;;;10.63;7.10;;;20.70;48.60;;;;;;6107205;23;20726;-84
2021/08/20 07:43:08;;;;;;;10.33;6.20;;;20.70;48.10;;;;;;6097921;23;20408;-84
2021/08/20 07:45:35;;;;;;;12.53;6.93;;;20.90;47.40;;;;;;6107856;23;20420;-84
2021/08/20 07:48:04;;;;;;;13.90;6.53;;;20.80;47.30;;;;;;6097973;23;20431;-84
2021/08/20 07:50:31;;;;;;;14.40;6.83;;;21.00;47.20;;;;;;6098216;23;20486;-84
2021/08/20 07:52:59;;;;;;;9.73;5.87;;;21.00;48.90;;;;;;6096705;23;20407;-84
2021/08/20 07:55:26;;;;;;;9.23;6.17;;;20.90;47.40;;;;;;6098038;23;20433;-85
2021/08/20 07:57:55;;;;;;;10.47;4.70;;;21.10;45.40;;;;;;6098214;23;20407;-85
2021/08/20 08:00:26;;;;;;;9.10;4.90;;;21.10;45.40;;;;;;6097992;23;20447;-85
2021/08/20 08:02:53;;;;;;;7.60;4.93;;;21.20;43.20;;;;;;6098190;23;20407;-81
2021/08/20 08:05:20;;;;;;;8.07;4.77;;;21.20;44.20;;;;;;6097416;23;20486;-77
2021/08/20 08:07:50;;;;;;;11.87;4.30;;;21.10;45.40;;;;;;6096696;23;20404;-86
2021/08/20 08:10:21;;;;;;;12.90;4.93;;;21.00;45.30;;;;;;6097468;23;20408;-85
2021/08/20 08:12:48;;;;;;;7.83;5.03;;;20.80;45.10;;;;;;6097977;23;20410;-86
2021/08/20 08:15:17;;;;;;;10.70;5.27;;;20.60;44.90;;;;;;6097501;23;20404;-84
2021/08/20 08:17:47;;;;;;;10.53;5.30;;;20.70;45.00;;;;;;6097769;23;20408;-83
2021/08/20 08:20:16;;;;;;;11.00;4.73;;;20.50;46.60;;;;;;6107581;23;20503;-85
2021/08/20 08:22:44;;;;;;;17.50;5.53;;;20.60;46.60;;;;;;6105737;23;20990;-85
2021/08/20 08:25:12;;;;;;;9.43;4.70;;;20.70;47.80;;;;;;6107597;23;20408;-83
2021/08/20 08:27:55;;;;;;;9.60;5.23;;;20.80;48.40;;;;;;6106793;23;20439;-84
2021/08/20 08:30:26;;;;;;;11.33;5.50;;;20.90;46.70;;;;;;6107455;23;20462;-84
2021/08/20 08:32:58;;;;;;;7.50;4.43;;;21.40;45.70;;;;;;6107079;23;20937;-86
2021/08/20 08:35:32;;;;;;;16.33;6.50;;;21.60;44.20;;;;;;6107145;23;20490;-85
2021/08/20 08:38:06;;;;;;;6.70;4.20;;;21.60;43.60;;;;;;6096253;23;20883;-85
2021/08/20 08:40:35;;;;;;;9.13;5.33;;;21.30;44.00;;;;;;6097708;23;20427;-84
2021/08/20 08:43:04;;;;;;;10.20;5.33;;;21.00;45.30;;;;;;6104277;23;20798;-86
2021/08/20 08:45:34;;;;;;;9.00;5.20;;;20.90;47.60;;;;;;6105872;23;20884;-85
2021/08/20 08:48:05;;;;;;;13.27;6.43;;;20.70;50.70;;;;;;6096753;23;20407;-84
2021/08/20 08:50:35;;;;;;;8.80;5.60;;;20.40;51.70;;;;;;6096278;23;20430;-85
2021/08/20 08:53:03;;;;;;;15.90;7.60;;;20.10;52.70;;;;;;6105459;23;20419;-85
2021/08/20 08:55:30;;;;;;;12.10;7.40;;;20.10;56.50;;;;;;6096074;23;20404;-85
2021/08/20 08:57:57;;;;;;;12.00;6.93;;;20.00;56.90;;;;;;6096267;23;20943;-85
2021/08/20 09:00:36;;;;;;;10.10;6.67;;;19.80;57.30;;;;;;6105866;23;20416;-84
2021/08/20 09:03:03;;;;;;;12.67;6.60;;;19.50;60.50;;;;;;6096369;23;20903;-84
2021/08/20 09:05:43;;;;;;;6.90;5.60;;;19.50;63.20;;;;;;6105817;23;20443;-83
2021/08/20 09:08:13;;;;;;;6.23;4.90;;;19.30;64.70;;;;;;6095183;23;20400;-83
2021/08/20 09:10:49;;;;;;;7.33;5.87;;;19.30;64.60;;;;;;6096692;23;20463;-85
2021/08/20 09:13:16;;;;;;;7.60;5.60;;;19.60;65.10;;;;;;6095870;23;20408;-85
2021/08/20 09:15:46;;;;;;;5.80;4.27;;;19.80;63.60;;;;;;6105980;23;20447;-84
2021/08/20 09:18:22;;;;;;;7.73;4.90;;;19.80;61.70;;;;;;6096202;23;20410;-84
2021/08/20 09:20:50;;;;;;;7.30;4.40;;;20.10;61.30;;;;;;6095876;23;20435;-84
2021/08/20 09:23:23;;;;;;;6.63;4.70;;;20.30;61.10;;;;;;6094712;23;20891;-84
2021/08/20 09:25:50;;;;;;;5.77;4.37;;;20.30;59.60;;;;;;6097284;23;20404;-84
2021/08/20 09:28:27;;;;;;;5.00;3.30;;;20.40;60.10;;;;;;6107089;23;20503;-88
2021/08/20 09:31:05;;;;;;;5.13;1.87;;;20.50;56.40;;;;;;6096975;23;20404;-85
2021/08/20 09:33:34;;;;;;;3.50;1.70;;;20.30;55.60;;;;;;6097229;23;20407;-85
2021/08/20 09:36:03;;;;;;;3.70;1.73;;;20.30;56.40;;;;;;6107073;23;20408;-84
2021/08/20 09:38:32;;;;;;;3.83;1.67;;;20.20;56.00;;;;;;6095721;23;20403;-84
2021/08/20 09:41:04;;;;;;;3.00;1.27;;;20.00;56.40;;;;;;6106549;23;20411;-86
2021/08/20 09:43:35;;;;;;;3.47;1.20;;;20.30;56.40;;;;;;6096988;23;20455;-86
2021/08/20 09:46:08;;;;;;;4.50;1.17;;;20.50;53.70;;;;;;6097003;23;20486;-86
2021/08/20 09:48:44;;;;;;;2.80;0.80;;;21.40;50.50;;;;;;6106839;23;20522;-85
2021/08/20 09:51:12;;;;;;;3.10;0.90;;;21.80;47.50;;;;;;6097255;23;20482;-85
2021/08/20 09:53:39;;;;;;;3.20;1.17;;;21.90;42.70;;;;;;6104900;23;20502;-86
2021/08/20 09:56:07;;;;;;;3.20;0.90;;;22.70;43.00;;;;;;6106826;23;20408;-85
2021/08/20 09:58:37;;;;;;;6.27;0.90;;;23.60;36.70;;;;;;6106750;23;20498;-87
2021/08/20 10:01:06;;;;;;;3.00;0.93;;;24.30;36.40;;;;;;6097116;23;20467;-85
2021/08/20 10:03:34;;;;;;;3.10;1.03;;;24.90;32.80;;;;;;6096986;23;20514;-85
2021/08/20 10:06:03;;;;;;;2.70;0.63;;;25.60;30.30;;;;;;6097225;23;20386;-86
2021/08/20 10:08:35;;;;;;;3.87;1.03;;;26.10;26.70;;;;;;6095435;23;20431;-87
2021/08/20 10:11:05;;;;;;;3.20;0.90;;;26.60;22.10;;;;;;6106808;23;20407;-86
2021/08/20 10:13:33;;;;;;;3.20;0.70;;;26.80;22.10;;;;;;6096793;23;20407;-78
2021/08/20 10:16:02;;;;;;;2.90;0.90;;;26.80;22.10;;;;;;6107028;23;20403;-80
2021/08/20 10:18:32;;;;;;;3.00;0.80;;;26.80;19.80;;;;;;6097231;23;20407;-80
2021/08/20 10:21:05;;;;;;;2.80;0.70;;;26.50;18.80;;;;;;6096835;23;20403;-80
2021/08/20 10:24:00;;;;;;;2.90;0.70;;;26.50;19.30;;;;;;6095517;23;20411;-81
2021/08/20 10:26:30;;;;;;;3.10;0.80;;;26.50;23.50;;;;;;6095551;23;20467;-88
2021/08/20 10:28:59;;;;;;;3.20;0.83;;;26.80;20.30;;;;;;6106700;23;20989;-89
2021/08/20 10:31:28;;;;;;;5.30;1.33;;;27.20;19.50;;;;;;6106315;23;20415;-81
2021/08/20 10:33:56;;;;;;;3.30;0.97;;;27.70;18.00;;;;;;6097118;23;20472;-80
2021/08/20 10:36:37;;;;;;;3.10;1.00;;;27.50;17.20;;;;;;6096778;23;20495;-81
2021/08/20 10:39:05;;;;;;;3.47;1.07;;;27.20;17.50;;;;;;6095694;23;20414;-81
2021/08/20 10:42:15;;;;;;;3.70;1.00;;;26.30;19.30;;;;;;6108287;23;20611;-92
2021/08/20 10:44:46;;;;;;;3.90;1.30;;;25.80;21.70;;;;;;6101766;23;20406;-88
2021/08/20 10:47:26;;;;;;;4.50;1.20;;;25.50;23.50;;;;;;6120154;23;20431;-86
2021/08/20 10:50:08;;;;;;;5.20;2.00;;;25.40;25.30;;;;;;6109531;23;20530;-79
2021/08/20 10:52:40;;;;;;;4.03;1.73;;;25.00;23.30;;;;;;6096478;23;20455;-80
2021/08/20 10:58:41;;;;;;;4.70;1.83;;;24.80;25.70;;;;;;6106414;23;20419;-92
2021/08/20 11:01:21;;;;;;;4.87;1.70;;;24.50;26.50;;;;;;6095986;23;20422;-91
2021/08/20 11:03:49;;;;;;;5.47;2.60;;;24.50;26.50;;;;;;6100623;23;20986;-96
2021/08/20 11:06:55;;;;;;;3.80;1.70;;;24.70;25.10;;;;;;6110667;23;20450;-96
2021/08/20 11:09:37;;;;;;;5.27;1.87;;;25.10;24.80;;;;;;6114045;23;20510;-93
2021/08/20 11:12:13;;;;;;;4.40;1.70;;;26.30;22.00;;;;;;6120430;23;20423;-91
2021/08/20 11:14:48;;;;;;;4.80;1.57;;;26.70;17.70;;;;;;6109141;23;20463;-87
2021/08/20 11:17:53;;;;;;;6.13;1.53;;;26.50;18.10;;;;;;6115403;23;20415;-94
2021/08/20 11:20:38;;;;;;;4.80;2.07;;;26.10;17.50;;;;;;6097906;23;20403;-93
2021/08/20 11:23:38;;;;;;;4.50;1.47;;;25.50;20.70;;;;;;6110675;23;20926;-86
2021/08/20 11:26:10;;;;;;;4.20;1.90;;;25.40;21.40;;;;;;6117616;23;20828;-85
2021/08/20 11:28:45;;;;;;;5.40;2.13;;;25.50;20.60;;;;;;6122266;23;20407;-87
2021/08/20 11:31:20;;;;;;;4.00;1.67;;;25.40;19.50;;;;;;6119336;23;20417;-83
2021/08/20 11:33:50;;;;;;;5.73;1.63;;;26.10;19.70;;;;;;6113646;23;20419;-87
2021/08/20 11:36:27;;;;;;;4.67;1.63;;;25.30;16.80;;;;;;6097623;23;20491;-82
2021/08/20 11:39:11;;;;;;;5.13;1.70;;;25.60;19.60;;;;;;6106307;23;20423;-84
2021/08/20 11:42:00;;;;;;;;;;;;;;;;;;;;;
2021/08/20 11:44:45;;;;;;;;;;;;;;;;;;;;;
2021/08/20 11:47:21;;;;;;;6.27;1.90;;;27.20;17.00;;;;;;6108468;23;20412;-83
2021/08/20 11:50:00;;;;;;;5.30;1.37;;;26.40;19.00;;;;;;6107591;23;20800;-83
2021/08/20 11:52:28;;;;;;;4.20;1.83;;;25.70;18.20;;;;;;6097869;23;20408;-83
2021/08/20 11:54:57;;;;;;;5.77;2.30;;;25.30;19.90;;;;;;6096376;23;20414;-82
2021/08/20 11:57:39;;;;;;;4.57;2.20;;;24.60;21.70;;;;;;6107661;23;20507;-83
2021/08/20 12:00:07;;;;;;;6.70;2.20;;;23.90;24.40;;;;;;6097783;23;20400;-85
2021/08/20 12:02:34;;;;;;;7.50;2.07;;;23.60;26.10;;;;;;6108037;23;20472;-87
2021/08/20 12:05:16;;;;;;;8.80;2.57;;;23.30;26.90;;;;;;6107522;23;20525;-87
2021/08/20 12:07:42;;;;;;;5.33;1.73;;;23.00;29.10;;;;;;6106700;23;21036;-87
2021/08/20 12:10:13;;;;;;;3.90;1.57;;;22.90;27.30;;;;;;6107549;23;20995;-83
2021/08/20 12:12:42;;;;;;;4.40;1.70;;;22.50;28.90;;;;;;6097994;23;20410;-86
2021/08/20 12:15:10;;;;;;;5.57;1.90;;;22.30;29.70;;;;;;6097537;23;20410;-83
2021/08/20 12:17:38;;;;;;;7.73;1.97;;;22.30;30.60;;;;;;6097876;23;20404;-84
2021/08/20 12:20:19;;;;;;;5.17;1.47;;;22.50;29.30;;;;;;6107596;23;20491;-83
2021/08/20 12:22:49;;;;;;;4.80;2.00;;;22.70;29.00;;;;;;6105849;23;20782;-86
2021/08/20 12:25:19;;;;;;;3.83;1.80;;;23.20;27.40;;;;;;6097744;23;20432;-87
2021/08/20 12:27:47;;;;;;;6.53;2.03;;;23.20;29.30;;;;;;6097765;23;20442;-87
2021/08/20 12:30:15;;;;;;;9.50;1.83;;;23.60;28.90;;;;;;6097774;23;20471;-87
2021/08/20 12:32:44;;;;;;;3.60;1.40;;;23.70;24.90;;;;;;6097499;23;20876;-87
2021/08/20 12:35:17;;;;;;;6.53;2.30;;;24.30;25.20;;;;;;6098088;23;20483;-86
2021/08/20 12:37:59;;;;;;;4.90;1.90;;;24.50;23.00;;;;;;6096083;23;20403;-86
2021/08/20 12:40:34;;;;;;;4.33;1.80;;;25.30;22.60;;;;;;6107494;23;20476;-86
2021/08/20 12:43:01;;;;;;;3.63;1.50;;;26.80;16.80;;;;;;6097107;23;20408;-86
2021/08/20 12:45:28;;;;;;;4.00;1.63;;;27.50;17.50;;;;;;6097285;23;20442;-89
2021/08/20 12:48:03;;;;;;;8.83;1.90;;;27.70;11.00;;;;;;6097603;23;20453;-87
2021/08/20 12:50:31;;;;;;;4.70;2.30;;;27.00;16.90;;;;;;6107002;23;20470;-84
2021/08/20 12:53:02;;;;;;;5.83;2.17;;;27.30;14.60;;;;;;6096059;23;20794;-84
2021/08/20 12:55:33;;;;;;;5.17;1.67;;;26.60;14.70;;;;;;6097446;23;20740;-85